sensor_id;sensor_type;location;lat;lon;timestamp;P1;durP1;ratioP1;P2;durP2;ratioP2
5622;SDS011;2833;50.432;10.706;2022-08-14T00:02:09;10.80;;;9.50;;
5622;SDS011;2833;50.432;10.706;2022-08-14T00:04:35;11.33;;;9.90;;
5622;SDS011;2833;50.432;10.706;2022-08-14T00:07:01;11.07;;;9.87;;
5622;SDS011;2833;50.432;10.706;2022-08-14T00:09:27;11.40;;;9.70;;
5622;SDS011;2833;50.432;10.706;2022-08-14T00:11:52;11.57;;;10.23;;
5622;SDS011;2833;50.432;10.706;2022-08-14T00:14:17;11.67;;;10.37;;
5622;SDS011;2833;50.432;10.706;2022-08-14T00:16:42;11.50;;;10.30;;
5622;SDS011;2833;50.432;10.706;2022-08-14T00:19:08;12.10;;;10.80;;
5622;SDS011;2833;50.432;10.706;2022-08-14T00:21:33;12.97;;;10.87;;
5622;SDS011;2833;50.432;10.706;2022-08-14T00:23:58;12.17;;;10.90;;
5622;SDS011;2833;50.432;10.706;2022-08-14T00:26:24;12.83;;;10.10;;
5622;SDS011;2833;50.432;10.706;2022-08-14T00:28:49;12.57;;;10.57;;
5622;SDS011;2833;50.432;10.706;2022-08-14T00:31:14;13.10;;;10.20;;
5622;SDS011;2833;50.432;10.706;2022-08-14T00:33:40;11.17;;;9.97;;
5622;SDS011;2833;50.432;10.706;2022-08-14T00:36:05;13.70;;;10.87;;
5622;SDS011;2833;50.432;10.706;2022-08-14T00:38:31;10.67;;;9.57;;
5622;SDS011;2833;50.432;10.706;2022-08-14T00:40:56;16.23;;;10.43;;
5622;SDS011;2833;50.432;10.706;2022-08-14T00:43:21;26.40;;;16.37;;
5622;SDS011;2833;50.432;10.706;2022-08-14T00:45:47;25.20;;;17.47;;
5622;SDS011;2833;50.432;10.706;2022-08-14T00:48:12;18.90;;;16.87;;
5622;SDS011;2833;50.432;10.706;2022-08-14T00:50:38;15.23;;;13.20;;
5622;SDS011;2833;50.432;10.706;2022-08-14T00:53:04;14.33;;;12.83;;
5622;SDS011;2833;50.432;10.706;2022-08-14T00:55:29;12.73;;;11.43;;
5622;SDS011;2833;50.432;10.706;2022-08-14T00:57:55;16.10;;;12.37;;
5622;SDS011;2833;50.432;10.706;2022-08-14T01:00:39;13.97;;;9.97;;
5622;SDS011;2833;50.432;10.706;2022-08-14T01:03:05;12.87;;;10.57;;
5622;SDS011;2833;50.432;10.706;2022-08-14T01:05:31;12.40;;;10.50;;
5622;SDS011;2833;50.432;10.706;2022-08-14T01:07:58;12.27;;;10.97;;
5622;SDS011;2833;50.432;10.706;2022-08-14T01:10:27;15.53;;;9.87;;
5622;SDS011;2833;50.432;10.706;2022-08-14T01:13:14;12.03;;;10.77;;
5622;SDS011;2833;50.432;10.706;2022-08-14T01:15:41;11.57;;;10.37;;
5622;SDS011;2833;50.432;10.706;2022-08-14T01:18:07;12.80;;;11.50;;
5622;SDS011;2833;50.432;10.706;2022-08-14T01:20:51;12.53;;;11.23;;
5622;SDS011;2833;50.432;10.706;2022-08-14T01:23:30;12.67;;;10.80;;
5622;SDS011;2833;50.432;10.706;2022-08-14T01:25:56;12.33;;;10.33;;
5622;SDS011;2833;50.432;10.706;2022-08-14T01:28:22;12.30;;;9.73;;
5622;SDS011;2833;50.432;10.706;2022-08-14T01:30:48;14.47;;;11.00;;
5622;SDS011;2833;50.432;10.706;2022-08-14T01:33:19;13.00;;;11.13;;
5622;SDS011;2833;50.432;10.706;2022-08-14T01:35:45;12.23;;;10.93;;
5622;SDS011;2833;50.432;10.706;2022-08-14T01:38:13;12.87;;;11.37;;
5622;SDS011;2833;50.432;10.706;2022-08-14T01:40:39;43.67;;;22.80;;
5622;SDS011;2833;50.432;10.706;2022-08-14T01:43:08;21.40;;;16.30;;
5622;SDS011;2833;50.432;10.706;2022-08-14T01:45:40;20.20;;;14.60;;
5622;SDS011;2833;50.432;10.706;2022-08-14T01:48:05;17.77;;;12.50;;
5622;SDS011;2833;50.432;10.706;2022-08-14T01:50:31;15.10;;;11.17;;
5622;SDS011;2833;50.432;10.706;2022-08-14T01:52:56;11.10;;;10.00;;
5622;SDS011;2833;50.432;10.706;2022-08-14T01:55:21;12.57;;;10.90;;
5622;SDS011;2833;50.432;10.706;2022-08-14T01:57:49;15.13;;;11.60;;
5622;SDS011;2833;50.432;10.706;2022-08-14T02:00:14;11.80;;;10.60;;
5622;SDS011;2833;50.432;10.706;2022-08-14T02:02:40;12.07;;;10.57;;
5622;SDS011;2833;50.432;10.706;2022-08-14T02:05:06;12.30;;;10.20;;
5622;SDS011;2833;50.432;10.706;2022-08-14T02:07:32;12.17;;;10.50;;
5622;SDS011;2833;50.432;10.706;2022-08-14T02:10:00;11.53;;;9.90;;
5622;SDS011;2833;50.432;10.706;2022-08-14T02:12:25;13.43;;;10.57;;
5622;SDS011;2833;50.432;10.706;2022-08-14T02:14:50;13.43;;;11.07;;
5622;SDS011;2833;50.432;10.706;2022-08-14T02:17:16;12.80;;;11.40;;
5622;SDS011;2833;50.432;10.706;2022-08-14T02:19:41;12.10;;;10.17;;
5622;SDS011;2833;50.432;10.706;2022-08-14T02:22:06;13.27;;;10.40;;
5622;SDS011;2833;50.432;10.706;2022-08-14T02:24:32;11.67;;;10.47;;
5622;SDS011;2833;50.432;10.706;2022-08-14T02:26:58;12.47;;;10.47;;
5622;SDS011;2833;50.432;10.706;2022-08-14T02:29:24;13.90;;;10.90;;
5622;SDS011;2833;50.432;10.706;2022-08-14T02:31:51;10.50;;;9.40;;
5622;SDS011;2833;50.432;10.706;2022-08-14T02:34:19;11.70;;;10.50;;
5622;SDS011;2833;50.432;10.706;2022-08-14T02:36:46;11.23;;;9.50;;
5622;SDS011;2833;50.432;10.706;2022-08-14T02:39:11;12.43;;;11.13;;
5622;SDS011;2833;50.432;10.706;2022-08-14T02:41:37;12.23;;;10.93;;
5622;SDS011;2833;50.432;10.706;2022-08-14T02:44:03;12.10;;;9.90;;
5622;SDS011;2833;50.432;10.706;2022-08-14T02:46:28;12.03;;;10.73;;
5622;SDS011;2833;50.432;10.706;2022-08-14T02:48:57;11.10;;;10.00;;
5622;SDS011;2833;50.432;10.706;2022-08-14T02:51:22;12.40;;;10.40;;
5622;SDS011;2833;50.432;10.706;2022-08-14T02:53:47;11.30;;;9.80;;
5622;SDS011;2833;50.432;10.706;2022-08-14T02:56:14;13.50;;;10.30;;
5622;SDS011;2833;50.432;10.706;2022-08-14T02:58:42;12.10;;;10.27;;
5622;SDS011;2833;50.432;10.706;2022-08-14T03:01:08;12.70;;;11.40;;
5622;SDS011;2833;50.432;10.706;2022-08-14T03:03:34;12.00;;;10.53;;
5622;SDS011;2833;50.432;10.706;2022-08-14T03:06:01;15.53;;;10.70;;
5622;SDS011;2833;50.432;10.706;2022-08-14T03:08:26;11.70;;;10.50;;
5622;SDS011;2833;50.432;10.706;2022-08-14T03:10:56;12.93;;;11.10;;
5622;SDS011;2833;50.432;10.706;2022-08-14T03:13:21;13.80;;;10.93;;
5622;SDS011;2833;50.432;10.706;2022-08-14T03:15:46;12.30;;;10.73;;
5622;SDS011;2833;50.432;10.706;2022-08-14T03:18:17;11.13;;;10.03;;
5622;SDS011;2833;50.432;10.706;2022-08-14T03:20:42;11.67;;;10.47;;
5622;SDS011;2833;50.432;10.706;2022-08-14T03:23:07;12.93;;;11.30;;
5622;SDS011;2833;50.432;10.706;2022-08-14T03:25:33;14.27;;;11.13;;
5622;SDS011;2833;50.432;10.706;2022-08-14T03:28:06;12.50;;;10.50;;
5622;SDS011;2833;50.432;10.706;2022-08-14T03:30:32;12.67;;;11.17;;
5622;SDS011;2833;50.432;10.706;2022-08-14T03:32:57;12.60;;;10.67;;
5622;SDS011;2833;50.432;10.706;2022-08-14T03:35:23;12.30;;;11.03;;
5622;SDS011;2833;50.432;10.706;2022-08-14T03:37:48;15.03;;;10.73;;
5622;SDS011;2833;50.432;10.706;2022-08-14T03:40:16;12.77;;;10.27;;
5622;SDS011;2833;50.432;10.706;2022-08-14T03:42:41;12.57;;;10.53;;
5622;SDS011;2833;50.432;10.706;2022-08-14T03:45:08;11.63;;;10.43;;
5622;SDS011;2833;50.432;10.706;2022-08-14T03:47:33;10.57;;;9.47;;
5622;SDS011;2833;50.432;10.706;2022-08-14T03:50:04;11.67;;;10.30;;
5622;SDS011;2833;50.432;10.706;2022-08-14T03:52:31;11.63;;;10.40;;
5622;SDS011;2833;50.432;10.706;2022-08-14T03:54:57;12.83;;;11.23;;
5622;SDS011;2833;50.432;10.706;2022-08-14T03:57:23;11.80;;;10.50;;
5622;SDS011;2833;50.432;10.706;2022-08-14T03:59:49;12.43;;;10.97;;
5622;SDS011;2833;50.432;10.706;2022-08-14T04:02:14;13.50;;;10.63;;
5622;SDS011;2833;50.432;10.706;2022-08-14T04:04:39;11.93;;;10.57;;
5622;SDS011;2833;50.432;10.706;2022-08-14T04:07:04;12.27;;;10.97;;
5622;SDS011;2833;50.432;10.706;2022-08-14T04:09:29;11.60;;;10.40;;
5622;SDS011;2833;50.432;10.706;2022-08-14T04:11:55;13.20;;;10.90;;
5622;SDS011;2833;50.432;10.706;2022-08-14T04:14:20;11.87;;;10.60;;
5622;SDS011;2833;50.432;10.706;2022-08-14T04:16:46;12.87;;;11.07;;
5622;SDS011;2833;50.432;10.706;2022-08-14T04:19:12;13.50;;;10.57;;
5622;SDS011;2833;50.432;10.706;2022-08-14T04:21:41;12.43;;;10.63;;
5622;SDS011;2833;50.432;10.706;2022-08-14T04:24:06;14.23;;;10.80;;
5622;SDS011;2833;50.432;10.706;2022-08-14T04:26:31;12.53;;;11.17;;
5622;SDS011;2833;50.432;10.706;2022-08-14T04:28:57;13.03;;;11.67;;
5622;SDS011;2833;50.432;10.706;2022-08-14T04:31:23;12.83;;;10.30;;
5622;SDS011;2833;50.432;10.706;2022-08-14T04:33:48;12.70;;;11.23;;
5622;SDS011;2833;50.432;10.706;2022-08-14T04:36:14;12.13;;;10.60;;
5622;SDS011;2833;50.432;10.706;2022-08-14T04:38:39;12.73;;;11.33;;
5622;SDS011;2833;50.432;10.706;2022-08-14T04:41:23;20.60;;;11.50;;
5622;SDS011;2833;50.432;10.706;2022-08-14T04:44:17;12.77;;;11.37;;
5622;SDS011;2833;50.432;10.706;2022-08-14T04:46:43;11.80;;;10.57;;
5622;SDS011;2833;50.432;10.706;2022-08-14T04:49:28;11.63;;;10.43;;
5622;SDS011;2833;50.432;10.706;2022-08-14T04:51:53;11.77;;;10.30;;
5622;SDS011;2833;50.432;10.706;2022-08-14T04:54:18;13.03;;;10.77;;
5622;SDS011;2833;50.432;10.706;2022-08-14T04:56:44;11.57;;;10.37;;
5622;SDS011;2833;50.432;10.706;2022-08-14T04:59:09;11.53;;;10.33;;
5622;SDS011;2833;50.432;10.706;2022-08-14T05:01:34;12.10;;;10.70;;
5622;SDS011;2833;50.432;10.706;2022-08-14T05:03:59;12.67;;;11.17;;
5622;SDS011;2833;50.432;10.706;2022-08-14T05:06:24;12.00;;;10.43;;
5622;SDS011;2833;50.432;10.706;2022-08-14T05:08:50;12.83;;;11.23;;
5622;SDS011;2833;50.432;10.706;2022-08-14T05:11:15;14.30;;;11.27;;
5622;SDS011;2833;50.432;10.706;2022-08-14T05:13:43;14.70;;;12.07;;
5622;SDS011;2833;50.432;10.706;2022-08-14T05:16:08;12.97;;;11.57;;
5622;SDS011;2833;50.432;10.706;2022-08-14T05:18:36;12.43;;;11.03;;
5622;SDS011;2833;50.432;10.706;2022-08-14T05:21:03;13.83;;;12.33;;
5622;SDS011;2833;50.432;10.706;2022-08-14T05:23:29;12.17;;;10.87;;
5622;SDS011;2833;50.432;10.706;2022-08-14T05:25:56;12.43;;;11.20;;
5622;SDS011;2833;50.432;10.706;2022-08-14T05:28:31;13.23;;;11.23;;
5622;SDS011;2833;50.432;10.706;2022-08-14T05:30:57;14.53;;;11.50;;
5622;SDS011;2833;50.432;10.706;2022-08-14T05:33:24;13.90;;;11.53;;
5622;SDS011;2833;50.432;10.706;2022-08-14T05:35:50;14.70;;;12.73;;
5622;SDS011;2833;50.432;10.706;2022-08-14T05:38:16;12.60;;;11.30;;
5622;SDS011;2833;50.432;10.706;2022-08-14T05:40:42;14.77;;;11.93;;
5622;SDS011;2833;50.432;10.706;2022-08-14T05:43:07;15.00;;;12.60;;
5622;SDS011;2833;50.432;10.706;2022-08-14T05:45:33;13.37;;;11.40;;
5622;SDS011;2833;50.432;10.706;2022-08-14T05:47:59;15.47;;;12.53;;
5622;SDS011;2833;50.432;10.706;2022-08-14T05:50:24;15.03;;;12.47;;
5622;SDS011;2833;50.432;10.706;2022-08-14T05:52:50;26.03;;;19.57;;
5622;SDS011;2833;50.432;10.706;2022-08-14T05:55:15;27.10;;;18.73;;
5622;SDS011;2833;50.432;10.706;2022-08-14T06:00:16;19.40;;;14.60;;
5622;SDS011;2833;50.432;10.706;2022-08-14T06:02:41;14.77;;;13.03;;
5622;SDS011;2833;50.432;10.706;2022-08-14T06:05:07;19.27;;;15.40;;
5622;SDS011;2833;50.432;10.706;2022-08-14T06:07:34;18.93;;;14.93;;
5622;SDS011;2833;50.432;10.706;2022-08-14T06:09:59;14.97;;;13.00;;
5622;SDS011;2833;50.432;10.706;2022-08-14T06:12:25;16.00;;;13.60;;
5622;SDS011;2833;50.432;10.706;2022-08-14T06:14:50;19.70;;;13.83;;
5622;SDS011;2833;50.432;10.706;2022-08-14T06:17:15;18.03;;;16.10;;
5622;SDS011;2833;50.432;10.706;2022-08-14T06:19:40;21.10;;;17.80;;
5622;SDS011;2833;50.432;10.706;2022-08-14T06:22:05;23.57;;;15.00;;
5622;SDS011;2833;50.432;10.706;2022-08-14T06:24:31;17.90;;;14.40;;
5622;SDS011;2833;50.432;10.706;2022-08-14T06:26:56;16.70;;;14.80;;
5622;SDS011;2833;50.432;10.706;2022-08-14T06:29:21;15.50;;;12.90;;
5622;SDS011;2833;50.432;10.706;2022-08-14T06:31:46;15.20;;;11.30;;
5622;SDS011;2833;50.432;10.706;2022-08-14T06:34:12;14.50;;;10.57;;
5622;SDS011;2833;50.432;10.706;2022-08-14T06:36:37;14.03;;;10.10;;
5622;SDS011;2833;50.432;10.706;2022-08-14T06:39:02;13.63;;;10.40;;
5622;SDS011;2833;50.432;10.706;2022-08-14T06:41:28;11.60;;;9.50;;
5622;SDS011;2833;50.432;10.706;2022-08-14T06:43:53;13.47;;;9.87;;
5622;SDS011;2833;50.432;10.706;2022-08-14T06:46:18;13.00;;;9.87;;
5622;SDS011;2833;50.432;10.706;2022-08-14T06:48:43;10.87;;;9.00;;
5622;SDS011;2833;50.432;10.706;2022-08-14T06:51:08;11.13;;;8.90;;
5622;SDS011;2833;50.432;10.706;2022-08-14T06:53:34;11.93;;;9.40;;
5622;SDS011;2833;50.432;10.706;2022-08-14T06:55:59;9.63;;;8.40;;
5622;SDS011;2833;50.432;10.706;2022-08-14T06:58:24;11.33;;;8.30;;
5622;SDS011;2833;50.432;10.706;2022-08-14T07:00:50;10.13;;;8.50;;
5622;SDS011;2833;50.432;10.706;2022-08-14T07:03:33;11.20;;;7.20;;
5622;SDS011;2833;50.432;10.706;2022-08-14T07:06:18;10.73;;;7.17;;
5622;SDS011;2833;50.432;10.706;2022-08-14T07:08:43;9.60;;;8.20;;
5622;SDS011;2833;50.432;10.706;2022-08-14T07:11:09;12.20;;;7.83;;
5622;SDS011;2833;50.432;10.706;2022-08-14T07:13:35;10.80;;;6.97;;
5622;SDS011;2833;50.432;10.706;2022-08-14T07:16:00;8.80;;;7.83;;
5622;SDS011;2833;50.432;10.706;2022-08-14T07:18:26;8.70;;;7.40;;
5622;SDS011;2833;50.432;10.706;2022-08-14T07:20:52;9.40;;;7.57;;
5622;SDS011;2833;50.432;10.706;2022-08-14T07:23:18;9.50;;;7.80;;
5622;SDS011;2833;50.432;10.706;2022-08-14T07:25:44;7.60;;;6.83;;
5622;SDS011;2833;50.432;10.706;2022-08-14T07:28:11;9.47;;;7.30;;
5622;SDS011;2833;50.432;10.706;2022-08-14T07:30:37;7.97;;;6.40;;
5622;SDS011;2833;50.432;10.706;2022-08-14T07:33:03;9.77;;;6.73;;
5622;SDS011;2833;50.432;10.706;2022-08-14T07:35:28;8.63;;;7.47;;
5622;SDS011;2833;50.432;10.706;2022-08-14T07:37:53;7.60;;;6.80;;
5622;SDS011;2833;50.432;10.706;2022-08-14T07:40:19;8.23;;;6.80;;
5622;SDS011;2833;50.432;10.706;2022-08-14T07:42:44;9.07;;;7.67;;
5622;SDS011;2833;50.432;10.706;2022-08-14T07:45:09;8.30;;;6.73;;
5622;SDS011;2833;50.432;10.706;2022-08-14T07:47:39;9.10;;;7.07;;
5622;SDS011;2833;50.432;10.706;2022-08-14T07:50:14;9.23;;;7.30;;
5622;SDS011;2833;50.432;10.706;2022-08-14T07:52:41;7.90;;;6.70;;
5622;SDS011;2833;50.432;10.706;2022-08-14T07:55:07;9.90;;;6.90;;
5622;SDS011;2833;50.432;10.706;2022-08-14T07:57:32;8.67;;;6.27;;
5622;SDS011;2833;50.432;10.706;2022-08-14T07:59:57;9.90;;;7.47;;
5622;SDS011;2833;50.432;10.706;2022-08-14T08:02:22;8.97;;;7.80;;
5622;SDS011;2833;50.432;10.706;2022-08-14T08:04:52;10.23;;;7.70;;
5622;SDS011;2833;50.432;10.706;2022-08-14T08:07:20;8.87;;;7.60;;
5622;SDS011;2833;50.432;10.706;2022-08-14T08:09:48;11.80;;;8.20;;
5622;SDS011;2833;50.432;10.706;2022-08-14T08:12:14;9.37;;;7.63;;
5622;SDS011;2833;50.432;10.706;2022-08-14T08:14:40;12.07;;;7.43;;
5622;SDS011;2833;50.432;10.706;2022-08-14T08:17:07;9.17;;;7.80;;
5622;SDS011;2833;50.432;10.706;2022-08-14T08:19:32;8.77;;;7.30;;
5622;SDS011;2833;50.432;10.706;2022-08-14T08:21:57;7.60;;;6.80;;
5622;SDS011;2833;50.432;10.706;2022-08-14T08:24:22;8.30;;;7.07;;
5622;SDS011;2833;50.432;10.706;2022-08-14T08:26:48;10.43;;;7.63;;
5622;SDS011;2833;50.432;10.706;2022-08-14T08:29:20;10.77;;;7.53;;
5622;SDS011;2833;50.432;10.706;2022-08-14T08:31:49;8.47;;;7.17;;
5622;SDS011;2833;50.432;10.706;2022-08-14T08:34:14;10.60;;;7.23;;
5622;SDS011;2833;50.432;10.706;2022-08-14T08:36:40;10.30;;;7.10;;
5622;SDS011;2833;50.432;10.706;2022-08-14T08:39:05;8.70;;;6.77;;
5622;SDS011;2833;50.432;10.706;2022-08-14T08:41:44;7.97;;;6.60;;
5622;SDS011;2833;50.432;10.706;2022-08-14T08:44:10;11.63;;;7.00;;
5622;SDS011;2833;50.432;10.706;2022-08-14T08:46:36;7.87;;;6.60;;
5622;SDS011;2833;50.432;10.706;2022-08-14T08:49:01;7.80;;;6.50;;
5622;SDS011;2833;50.432;10.706;2022-08-14T08:51:33;7.67;;;6.00;;
5622;SDS011;2833;50.432;10.706;2022-08-14T08:54:04;7.63;;;6.43;;
5622;SDS011;2833;50.432;10.706;2022-08-14T08:58:58;8.83;;;6.70;;
5622;SDS011;2833;50.432;10.706;2022-08-14T09:01:30;7.53;;;5.80;;
5622;SDS011;2833;50.432;10.706;2022-08-14T09:04:02;9.20;;;6.70;;
5622;SDS011;2833;50.432;10.706;2022-08-14T09:06:27;11.90;;;7.30;;
5622;SDS011;2833;50.432;10.706;2022-08-14T09:08:53;9.27;;;6.90;;
5622;SDS011;2833;50.432;10.706;2022-08-14T09:11:18;8.80;;;6.97;;
5622;SDS011;2833;50.432;10.706;2022-08-14T09:13:43;8.10;;;6.83;;
5622;SDS011;2833;50.432;10.706;2022-08-14T09:16:09;11.40;;;7.37;;
5622;SDS011;2833;50.432;10.706;2022-08-14T09:18:34;8.07;;;6.30;;
5622;SDS011;2833;50.432;10.706;2022-08-14T09:20:59;10.27;;;6.20;;
5622;SDS011;2833;50.432;10.706;2022-08-14T09:23:25;7.80;;;6.63;;
5622;SDS011;2833;50.432;10.706;2022-08-14T09:25:50;8.47;;;6.87;;
5622;SDS011;2833;50.432;10.706;2022-08-14T09:28:16;7.63;;;6.30;;
5622;SDS011;2833;50.432;10.706;2022-08-14T09:30:43;9.23;;;6.70;;
5622;SDS011;2833;50.432;10.706;2022-08-14T09:41:33;7.67;;;6.73;;
5622;SDS011;2833;50.432;10.706;2022-08-14T09:46:26;10.13;;;7.87;;
5622;SDS011;2833;50.432;10.706;2022-08-14T09:49:02;12.67;;;8.93;;
5622;SDS011;2833;50.432;10.706;2022-08-14T09:51:28;10.80;;;6.30;;
5622;SDS011;2833;50.432;10.706;2022-08-14T09:54:01;8.97;;;7.87;;
5622;SDS011;2833;50.432;10.706;2022-08-14T09:56:27;12.17;;;6.50;;
5622;SDS011;2833;50.432;10.706;2022-08-14T09:58:52;8.23;;;6.10;;
5622;SDS011;2833;50.432;10.706;2022-08-14T10:01:18;7.77;;;6.80;;
5622;SDS011;2833;50.432;10.706;2022-08-14T10:03:47;9.53;;;6.70;;
5622;SDS011;2833;50.432;10.706;2022-08-14T10:06:15;6.63;;;5.47;;
5622;SDS011;2833;50.432;10.706;2022-08-14T10:08:47;8.63;;;6.50;;
5622;SDS011;2833;50.432;10.706;2022-08-14T10:11:24;7.50;;;6.70;;
5622;SDS011;2833;50.432;10.706;2022-08-14T10:13:50;11.53;;;6.97;;
5622;SDS011;2833;50.432;10.706;2022-08-14T10:16:18;8.60;;;6.83;;
5622;SDS011;2833;50.432;10.706;2022-08-14T10:18:44;7.87;;;5.90;;
5622;SDS011;2833;50.432;10.706;2022-08-14T10:21:14;8.07;;;6.77;;
5622;SDS011;2833;50.432;10.706;2022-08-14T10:23:41;8.03;;;6.50;;
5622;SDS011;2833;50.432;10.706;2022-08-14T10:26:07;8.87;;;7.13;;
5622;SDS011;2833;50.432;10.706;2022-08-14T10:28:41;6.77;;;5.70;;
5622;SDS011;2833;50.432;10.706;2022-08-14T10:31:22;12.00;;;6.90;;
5622;SDS011;2833;50.432;10.706;2022-08-14T10:33:58;8.53;;;6.53;;
5622;SDS011;2833;50.432;10.706;2022-08-14T10:36:27;7.50;;;6.33;;
5622;SDS011;2833;50.432;10.706;2022-08-14T10:38:57;7.90;;;6.70;;
5622;SDS011;2833;50.432;10.706;2022-08-14T10:41:32;7.40;;;6.30;;
5622;SDS011;2833;50.432;10.706;2022-08-14T10:44:04;9.40;;;6.90;;
5622;SDS011;2833;50.432;10.706;2022-08-14T10:46:37;10.47;;;7.10;;
5622;SDS011;2833;50.432;10.706;2022-08-14T10:49:03;7.03;;;6.03;;
5622;SDS011;2833;50.432;10.706;2022-08-14T10:51:29;9.07;;;6.90;;
5622;SDS011;2833;50.432;10.706;2022-08-14T10:53:54;7.80;;;7.00;;
5622;SDS011;2833;50.432;10.706;2022-08-14T10:56:27;7.67;;;5.73;;
5622;SDS011;2833;50.432;10.706;2022-08-14T10:58:59;7.27;;;5.97;;
5622;SDS011;2833;50.432;10.706;2022-08-14T11:01:29;8.30;;;6.33;;
5622;SDS011;2833;50.432;10.706;2022-08-14T11:03:54;11.67;;;6.20;;
5622;SDS011;2833;50.432;10.706;2022-08-14T11:06:20;8.40;;;6.50;;
5622;SDS011;2833;50.432;10.706;2022-08-14T11:08:46;8.10;;;6.97;;
5622;SDS011;2833;50.432;10.706;2022-08-14T11:11:13;8.07;;;6.60;;
5622;SDS011;2833;50.432;10.706;2022-08-14T11:13:40;8.70;;;6.40;;
5622;SDS011;2833;50.432;10.706;2022-08-14T11:16:07;7.93;;;5.67;;
5622;SDS011;2833;50.432;10.706;2022-08-14T11:18:32;9.27;;;6.87;;
5622;SDS011;2833;50.432;10.706;2022-08-14T11:21:00;8.87;;;7.27;;
5622;SDS011;2833;50.432;10.706;2022-08-14T11:23:27;7.50;;;6.50;;
5622;SDS011;2833;50.432;10.706;2022-08-14T11:25:52;7.83;;;6.47;;
5622;SDS011;2833;50.432;10.706;2022-08-14T11:28:20;7.83;;;6.50;;
5622;SDS011;2833;50.432;10.706;2022-08-14T11:30:47;7.37;;;5.90;;
5622;SDS011;2833;50.432;10.706;2022-08-14T11:33:13;12.03;;;6.10;;
5622;SDS011;2833;50.432;10.706;2022-08-14T11:35:38;9.33;;;6.30;;
5622;SDS011;2833;50.432;10.706;2022-08-14T11:38:04;8.37;;;6.70;;
5622;SDS011;2833;50.432;10.706;2022-08-14T11:40:31;8.53;;;5.60;;
5622;SDS011;2833;50.432;10.706;2022-08-14T11:42:59;7.00;;;6.30;;
5622;SDS011;2833;50.432;10.706;2022-08-14T11:45:26;8.20;;;6.40;;
5622;SDS011;2833;50.432;10.706;2022-08-14T11:47:52;8.20;;;6.80;;
5622;SDS011;2833;50.432;10.706;2022-08-14T11:50:28;8.23;;;6.73;;
5622;SDS011;2833;50.432;10.706;2022-08-14T11:52:54;8.50;;;5.67;;
5622;SDS011;2833;50.432;10.706;2022-08-14T11:55:21;8.87;;;6.77;;
5622;SDS011;2833;50.432;10.706;2022-08-14T11:57:57;9.00;;;6.80;;
5622;SDS011;2833;50.432;10.706;2022-08-14T12:00:22;9.90;;;6.43;;
5622;SDS011;2833;50.432;10.706;2022-08-14T12:02:48;8.90;;;7.00;;
5622;SDS011;2833;50.432;10.706;2022-08-14T12:05:14;8.47;;;6.70;;
5622;SDS011;2833;50.432;10.706;2022-08-14T12:07:48;8.37;;;6.27;;
5622;SDS011;2833;50.432;10.706;2022-08-14T12:10:16;7.60;;;6.77;;
5622;SDS011;2833;50.432;10.706;2022-08-14T12:12:41;7.77;;;6.70;;
5622;SDS011;2833;50.432;10.706;2022-08-14T12:15:07;7.80;;;6.53;;
5622;SDS011;2833;50.432;10.706;2022-08-14T12:17:42;8.07;;;6.50;;
5622;SDS011;2833;50.432;10.706;2022-08-14T12:20:08;9.00;;;7.00;;
5622;SDS011;2833;50.432;10.706;2022-08-14T12:24:59;9.30;;;7.10;;
5622;SDS011;2833;50.432;10.706;2022-08-14T12:30:31;8.73;;;7.00;;
5622;SDS011;2833;50.432;10.706;2022-08-14T12:32:57;8.57;;;6.30;;
5622;SDS011;2833;50.432;10.706;2022-08-14T12:35:22;9.10;;;6.90;;
5622;SDS011;2833;50.432;10.706;2022-08-14T12:37:48;9.30;;;7.23;;
5622;SDS011;2833;50.432;10.706;2022-08-14T12:40:14;9.40;;;6.67;;
5622;SDS011;2833;50.432;10.706;2022-08-14T12:42:40;7.47;;;6.53;;
5622;SDS011;2833;50.432;10.706;2022-08-14T12:45:06;7.17;;;6.10;;
5622;SDS011;2833;50.432;10.706;2022-08-14T12:47:31;10.60;;;6.30;;
5622;SDS011;2833;50.432;10.706;2022-08-14T12:49:57;9.00;;;6.43;;
5622;SDS011;2833;50.432;10.706;2022-08-14T12:52:32;8.30;;;6.73;;
5622;SDS011;2833;50.432;10.706;2022-08-14T12:54:59;7.33;;;6.00;;
5622;SDS011;2833;50.432;10.706;2022-08-14T12:57:31;10.07;;;7.13;;
5622;SDS011;2833;50.432;10.706;2022-08-14T13:00:30;7.60;;;6.40;;
5622;SDS011;2833;50.432;10.706;2022-08-14T13:02:50;7.73;;;6.07;;
5622;SDS011;2833;50.432;10.706;2022-08-14T13:05:16;9.00;;;6.77;;
5622;SDS011;2833;50.432;10.706;2022-08-14T13:07:41;7.93;;;7.13;;
5622;SDS011;2833;50.432;10.706;2022-08-14T13:10:11;8.73;;;7.10;;
5622;SDS011;2833;50.432;10.706;2022-08-14T13:12:38;9.43;;;6.87;;
5622;SDS011;2833;50.432;10.706;2022-08-14T13:15:07;9.10;;;5.53;;
5622;SDS011;2833;50.432;10.706;2022-08-14T13:17:35;8.30;;;6.77;;
5622;SDS011;2833;50.432;10.706;2022-08-14T13:20:02;6.23;;;5.60;;
5622;SDS011;2833;50.432;10.706;2022-08-14T13:22:28;10.00;;;6.20;;
5622;SDS011;2833;50.432;10.706;2022-08-14T13:24:53;7.43;;;6.63;;
5622;SDS011;2833;50.432;10.706;2022-08-14T13:27:22;7.87;;;6.80;;
5622;SDS011;2833;50.432;10.706;2022-08-14T13:29:48;7.57;;;6.77;;
5622;SDS011;2833;50.432;10.706;2022-08-14T13:32:15;7.90;;;6.17;;
5622;SDS011;2833;50.432;10.706;2022-08-14T13:34:41;10.27;;;6.40;;
5622;SDS011;2833;50.432;10.706;2022-08-14T13:37:08;8.23;;;6.50;;
5622;SDS011;2833;50.432;10.706;2022-08-14T13:39:34;7.93;;;6.40;;
5622;SDS011;2833;50.432;10.706;2022-08-14T13:42:00;7.63;;;6.30;;
5622;SDS011;2833;50.432;10.706;2022-08-14T13:44:29;10.30;;;7.00;;
5622;SDS011;2833;50.432;10.706;2022-08-14T13:46:59;6.80;;;6.10;;
5622;SDS011;2833;50.432;10.706;2022-08-14T13:49:25;8.73;;;7.00;;
5622;SDS011;2833;50.432;10.706;2022-08-14T13:51:51;7.13;;;6.40;;
5622;SDS011;2833;50.432;10.706;2022-08-14T13:54:18;8.10;;;6.20;;
5622;SDS011;2833;50.432;10.706;2022-08-14T13:56:48;10.10;;;7.00;;
5622;SDS011;2833;50.432;10.706;2022-08-14T13:59:13;6.77;;;6.07;;
5622;SDS011;2833;50.432;10.706;2022-08-14T14:01:39;7.40;;;6.30;;
5622;SDS011;2833;50.432;10.706;2022-08-14T14:04:14;8.80;;;6.90;;
5622;SDS011;2833;50.432;10.706;2022-08-14T14:06:39;8.60;;;6.40;;
5622;SDS011;2833;50.432;10.706;2022-08-14T14:09:07;7.13;;;6.10;;
5622;SDS011;2833;50.432;10.706;2022-08-14T14:11:34;13.20;;;6.80;;
5622;SDS011;2833;50.432;10.706;2022-08-14T14:13:59;7.27;;;6.37;;
5622;SDS011;2833;50.432;10.706;2022-08-14T14:16:24;8.47;;;6.77;;
5622;SDS011;2833;50.432;10.706;2022-08-14T14:18:51;10.10;;;7.03;;
5622;SDS011;2833;50.432;10.706;2022-08-14T14:21:20;8.30;;;6.47;;
5622;SDS011;2833;50.432;10.706;2022-08-14T14:23:45;6.80;;;6.03;;
5622;SDS011;2833;50.432;10.706;2022-08-14T14:26:14;8.73;;;6.90;;
5622;SDS011;2833;50.432;10.706;2022-08-14T14:28:43;10.37;;;6.90;;
5622;SDS011;2833;50.432;10.706;2022-08-14T14:31:14;8.47;;;6.77;;
5622;SDS011;2833;50.432;10.706;2022-08-14T14:33:41;7.47;;;6.67;;
5622;SDS011;2833;50.432;10.706;2022-08-14T14:36:07;8.80;;;6.63;;
5622;SDS011;2833;50.432;10.706;2022-08-14T14:38:34;8.20;;;7.00;;
5622;SDS011;2833;50.432;10.706;2022-08-14T14:41:04;9.17;;;7.47;;
5622;SDS011;2833;50.432;10.706;2022-08-14T14:43:30;7.67;;;6.40;;
5622;SDS011;2833;50.432;10.706;2022-08-14T14:45:56;9.13;;;7.60;;
5622;SDS011;2833;50.432;10.706;2022-08-14T14:48:21;8.30;;;7.37;;
5622;SDS011;2833;50.432;10.706;2022-08-14T14:50:47;11.27;;;7.40;;
5622;SDS011;2833;50.432;10.706;2022-08-14T14:53:16;8.90;;;7.23;;
5622;SDS011;2833;50.432;10.706;2022-08-14T14:55:42;8.97;;;6.73;;
5622;SDS011;2833;50.432;10.706;2022-08-14T14:58:07;7.90;;;6.10;;
5622;SDS011;2833;50.432;10.706;2022-08-14T15:00:33;7.30;;;6.00;;
5622;SDS011;2833;50.432;10.706;2022-08-14T15:02:59;7.80;;;6.57;;
5622;SDS011;2833;50.432;10.706;2022-08-14T15:05:24;10.03;;;7.67;;
5622;SDS011;2833;50.432;10.706;2022-08-14T15:07:50;8.93;;;7.00;;
5622;SDS011;2833;50.432;10.706;2022-08-14T15:10:16;15.27;;;6.90;;